De Westereen, Netherlands
Current Conditions -  °F | °C
As of 5:55 PM on Saturday 22 Nov 2014 (Local Time) from EHLW Reporting Station
Haze Haze  
Wind Chill: 42°   Ceiling: 18000
Heat Index: 46°   Visibility: 5mi
Dew Point: 43°   Wind: 8mph
Humidity: 87%   Direction: 150°SSE
Pressure: 30"   Gusts: NA
Location:  53.26°N, 6.04°E
Report Text: EHLW 221655Z AUTO 15007KT 8000 BR FEW130 OVC180 08/06 Q1016 BLU
Loading
Personal Weather Stations






























Interactive Weather Map New forecast layout! Learn more

10-Day Weather Forecast

Advertisements
Track Severe Weather on mobile